Time;durP1;ratioP1;P1;durP2;ratioP2;P2;SDS_P1;SDS_P2;PMS_P1;PMS_P2;Temp;Humidity;BMP_temperature;BMP_pressure;BME280_temperature;BME280_humidity;BME280_pressure;Samples;Min_cycle;Max_cycle;Signal;HPM_P1;HPM_P2
2020/12/14 00:00:04;;;;;;;5.18;1.88;;;7.10;99.90;;;;;;4991977;28;20068;-70
2020/12/14 00:02:31;;;;;;;6.03;1.85;;;7.10;99.90;;;;;;4996015;28;20429;-70
2020/12/14 00:04:57;;;;;;;5.20;1.50;;;7.10;99.90;;;;;;4992581;28;20097;-70
2020/12/14 00:07:24;;;;;;;5.53;1.70;;;7.10;99.90;;;;;;4992775;28;20073;-70
2020/12/14 00:09:50;;;;;;;4.47;1.55;;;7.10;99.90;;;;;;4993358;28;20042;-71
2020/12/14 00:12:18;;;;;;;6.70;1.98;;;7.10;99.90;;;;;;4991694;28;20042;-70
2020/12/14 00:14:44;;;;;;;8.40;2.70;;;7.20;99.90;;;;;;4990039;28;20429;-70
2020/12/14 00:17:11;;;;;;;4.82;1.50;;;7.20;99.90;;;;;;4995876;28;20470;-70
2020/12/14 00:19:37;;;;;;;6.85;1.77;;;7.20;99.90;;;;;;4990816;28;20081;-70
2020/12/14 00:22:04;;;;;;;6.68;2.03;;;7.20;99.90;;;;;;4991275;28;20045;-70
2020/12/14 00:24:30;;;;;;;8.30;2.00;;;7.20;99.90;;;;;;4991269;28;20056;-70
2020/12/14 00:26:56;;;;;;;7.18;2.10;;;7.20;99.90;;;;;;4992525;28;20413;-70
2020/12/14 00:29:22;;;;;;;6.80;2.00;;;7.20;99.90;;;;;;4977974;28;20133;-70
2020/12/14 00:31:53;;;;;;;5.47;1.70;;;7.20;99.90;;;;;;4992775;28;20050;-70
2020/12/14 00:34:21;;;;;;;5.07;1.63;;;7.20;99.90;;;;;;4988261;28;20058;-70
2020/12/14 00:37:03;;;;;;;3.47;1.50;;;7.30;99.90;;;;;;4992934;28;20135;-70
2020/12/14 00:39:30;;;;;;;3.08;1.40;;;7.30;99.90;;;;;;4985551;28;20090;-70
2020/12/14 00:41:57;;;;;;;6.78;1.73;;;7.30;99.90;;;;;;4999982;28;20046;-70
2020/12/14 00:44:23;;;;;;;2.72;1.30;;;7.30;99.90;;;;;;4992469;28;20049;-70
2020/12/14 00:46:49;;;;;;;5.70;1.50;;;7.30;99.90;;;;;;4996425;28;20046;-70
2020/12/14 00:49:16;;;;;;;3.58;1.33;;;7.40;99.90;;;;;;4988318;28;20100;-70
2020/12/14 00:51:43;;;;;;;5.45;1.30;;;7.40;99.90;;;;;;4993610;28;20054;-70
2020/12/14 00:54:14;;;;;;;2.90;1.10;;;7.40;99.90;;;;;;4993715;28;20076;-70
2020/12/14 00:56:41;;;;;;;2.88;1.42;;;7.40;99.90;;;;;;4983149;28;20141;-70
2020/12/14 00:59:08;;;;;;;5.32;1.33;;;7.40;99.90;;;;;;5004178;28;20050;-70
2020/12/14 01:01:35;;;;;;;2.92;1.15;;;7.50;99.90;;;;;;4989870;28;20042;-69
2020/12/14 01:04:01;;;;;;;3.58;1.20;;;7.50;99.90;;;;;;4996793;28;20391;-70
2020/12/14 01:06:28;;;;;;;3.22;1.30;;;7.50;99.90;;;;;;4997539;28;20046;-70
2020/12/14 01:08:54;;;;;;;3.15;1.42;;;7.50;99.90;;;;;;4986807;28;20046;-69
2020/12/14 01:11:26;;;;;;;3.67;1.42;;;7.50;99.90;;;;;;4996146;28;20107;-69
2020/12/14 01:13:52;;;;;;;2.72;1.33;;;7.60;99.90;;;;;;4992647;28;20049;-70
2020/12/14 01:16:19;;;;;;;5.32;1.27;;;7.60;99.90;;;;;;4991085;28;20084;-69
2020/12/14 01:18:45;;;;;;;4.57;1.48;;;7.60;99.90;;;;;;4988529;28;20053;-69
2020/12/14 01:21:11;;;;;;;3.97;1.17;;;7.60;99.90;;;;;;4991417;28;20114;-70
2020/12/14 01:23:38;;;;;;;5.90;1.20;;;7.60;99.90;;;;;;4993193;28;20052;-69
2020/12/14 01:26:04;;;;;;;4.38;1.20;;;7.60;99.90;;;;;;4991300;28;20070;-70
2020/12/14 01:28:30;;;;;;;5.22;1.45;;;7.70;99.90;;;;;;5001089;28;20046;-70
2020/12/14 01:30:57;;;;;;;4.10;1.08;;;7.70;99.90;;;;;;4988261;28;20144;-70
2020/12/14 01:33:23;;;;;;;6.18;1.20;;;7.70;99.90;;;;;;4992315;28;20058;-70
2020/12/14 01:35:50;;;;;;;6.55;1.60;;;7.70;99.90;;;;;;4991125;28;20058;-69
2020/12/14 01:38:17;;;;;;;3.90;1.33;;;7.80;99.90;;;;;;4998488;28;20058;-69
2020/12/14 01:40:44;;;;;;;3.15;1.05;;;7.80;99.90;;;;;;4990812;28;20142;-69
2020/12/14 01:43:10;;;;;;;3.20;1.17;;;7.80;99.90;;;;;;4989594;28;20049;-70
2020/12/14 01:45:37;;;;;;;3.08;1.25;;;7.80;99.90;;;;;;4990969;28;20134;-70
2020/12/14 01:48:07;;;;;;;4.38;1.20;;;7.90;99.90;;;;;;4994624;28;20138;-69
2020/12/14 01:50:36;;;;;;;4.30;1.38;;;7.90;99.90;;;;;;4990995;28;20134;-69
2020/12/14 01:53:06;;;;;;;4.35;1.40;;;7.90;99.90;;;;;;4987565;28;20412;-70
2020/12/14 01:55:38;;;;;;;4.18;1.20;;;7.90;99.90;;;;;;4994547;28;20077;-70
2020/12/14 01:58:04;;;;;;;3.08;1.00;;;7.90;99.90;;;;;;4988886;28;20057;-69
2020/12/14 02:00:31;;;;;;;3.60;1.33;;;8.00;99.90;;;;;;4989577;28;20056;-70
2020/12/14 02:02:57;;;;;;;3.15;1.15;;;8.00;99.90;;;;;;4995512;28;20054;-69
2020/12/14 02:05:23;;;;;;;2.42;1.20;;;7.90;99.90;;;;;;4989850;28;20154;-69
2020/12/14 02:07:50;;;;;;;3.45;1.25;;;8.00;99.90;;;;;;4989848;28;20050;-70
2020/12/14 02:10:16;;;;;;;3.95;1.42;;;7.90;99.90;;;;;;4992215;28;20046;-69
2020/12/14 02:12:45;;;;;;;3.50;1.15;;;8.00;99.90;;;;;;4990138;28;20047;-70
2020/12/14 02:15:11;;;;;;;3.03;1.50;;;8.00;99.90;;;;;;4988972;28;20141;-69
2020/12/14 02:17:37;;;;;;;4.95;1.33;;;8.00;99.90;;;;;;4989284;28;20118;-70
2020/12/14 02:20:05;;;;;;;3.35;1.30;;;8.00;99.90;;;;;;4993798;28;20525;-70
2020/12/14 02:22:31;;;;;;;2.33;1.20;;;8.00;99.90;;;;;;4989244;28;20057;-70
2020/12/14 02:25:05;;;;;;;2.47;1.10;;;8.00;99.90;;;;;;4995180;28;20050;-70
2020/12/14 02:27:34;;;;;;;4.32;1.27;;;7.90;99.90;;;;;;4981914;28;20052;-70
2020/12/14 02:30:00;;;;;;;3.90;1.20;;;7.90;99.90;;;;;;4987542;28;20049;-70
2020/12/14 02:32:29;;;;;;;2.33;1.40;;;7.90;99.90;;;;;;4986172;28;20062;-70
2020/12/14 02:34:56;;;;;;;;;;;7.90;99.90;;;;;;4983358;28;20103;-70
2020/12/14 02:37:28;;;;;;;2.50;1.50;;;7.80;99.90;;;;;;4991510;28;19948;-69
2020/12/14 02:39:54;;;;;;;3.00;1.50;;;7.80;99.90;;;;;;4984271;28;20050;-70
2020/12/14 02:42:23;;;;;;;3.00;1.35;;;7.80;99.90;;;;;;4987932;28;20038;-69
2020/12/14 02:44:50;;;;;;;3.13;1.58;;;7.80;99.90;;;;;;4992125;28;20065;-69
2020/12/14 02:47:17;;;;;;;3.38;1.70;;;7.80;99.90;;;;;;4987783;28;20367;-69
2020/12/14 02:49:44;;;;;;;5.97;2.20;;;7.80;99.90;;;;;;4989291;28;20073;-70
2020/12/14 02:52:12;;;;;;;3.03;1.50;;;7.80;99.90;;;;;;4973867;28;20104;-69
2020/12/14 02:54:40;;;;;;;5.53;1.90;;;7.90;99.90;;;;;;4988746;28;20060;-70
2020/12/14 02:57:07;;;;;;;4.85;1.65;;;7.90;99.90;;;;;;4990461;28;20134;-69
2020/12/14 02:59:33;;;;;;;2.65;1.50;;;7.90;99.90;;;;;;4983005;28;20522;-69
2020/12/14 03:01:59;;;;;;;3.05;1.80;;;7.90;99.90;;;;;;4988836;28;20049;-70
2020/12/14 03:04:26;;;;;;;4.30;1.90;;;7.90;99.90;;;;;;4990089;28;20061;-70
2020/12/14 03:06:52;;;;;;;3.58;1.75;;;7.90;99.90;;;;;;4990758;28;20046;-70
2020/12/14 03:09:20;;;;;;;3.88;1.77;;;7.90;99.90;;;;;;4988708;28;20046;-69
2020/12/14 03:11:47;;;;;;;6.90;2.00;;;8.00;99.90;;;;;;4990611;28;20125;-70
2020/12/14 03:14:16;;;;;;;5.95;2.35;;;7.90;99.90;;;;;;4989461;28;20058;-69
2020/12/14 03:16:49;;;;;;;3.38;1.73;;;8.00;99.90;;;;;;4990886;28;20047;-70
2020/12/14 03:19:17;;;;;;;3.63;1.98;;;7.90;99.90;;;;;;4988159;28;20042;-69
2020/12/14 03:21:44;;;;;;;2.67;1.48;;;7.90;99.90;;;;;;4993204;28;20052;-70
2020/12/14 03:24:11;;;;;;;3.03;1.65;;;7.90;99.90;;;;;;4994727;28;20042;-70
2020/12/14 03:26:38;;;;;;;2.65;1.50;;;7.90;99.90;;;;;;4993991;28;20127;-70
2020/12/14 03:29:05;;;;;;;3.42;1.52;;;7.90;99.90;;;;;;4993256;28;20449;-70
2020/12/14 03:31:32;;;;;;;3.88;1.88;;;7.90;99.90;;;;;;4993651;28;20054;-70
2020/12/14 03:33:59;;;;;;;4.85;1.90;;;7.90;99.90;;;;;;4994302;28;20189;-69
2020/12/14 03:36:26;;;;;;;2.97;1.63;;;7.80;99.90;;;;;;4992909;28;20053;-70
2020/12/14 03:38:54;;;;;;;4.95;1.80;;;7.80;99.90;;;;;;4992445;28;20129;-69
2020/12/14 03:41:22;;;;;;;4.40;1.67;;;7.80;99.90;;;;;;4993480;28;20042;-69
2020/12/14 03:43:49;;;;;;;3.70;1.63;;;7.80;99.90;;;;;;4993677;28;20458;-70
2020/12/14 03:46:18;;;;;;;2.33;1.48;;;7.80;99.90;;;;;;4993136;28;20138;-69
2020/12/14 03:48:44;;;;;;;3.17;1.63;;;7.80;99.90;;;;;;4992123;28;20404;-69
2020/12/14 03:51:12;;;;;;;2.42;1.42;;;7.80;99.90;;;;;;4993419;28;20180;-69
2020/12/14 03:53:42;;;;;;;3.55;1.50;;;7.80;99.90;;;;;;4994498;28;20410;-69
2020/12/14 03:56:09;;;;;;;2.83;1.63;;;7.80;99.90;;;;;;4991889;28;20478;-69
2020/12/14 03:58:35;;;;;;;4.18;1.80;;;7.80;99.90;;;;;;4990380;28;20061;-69
2020/12/14 04:01:02;;;;;;;2.95;1.40;;;7.70;99.90;;;;;;4992399;28;20057;-69
2020/12/14 04:03:28;;;;;;;2.95;1.70;;;7.80;99.90;;;;;;4994004;28;20050;-69
2020/12/14 04:05:55;;;;;;;5.10;1.63;;;7.80;99.90;;;;;;4992851;28;20478;-69
2020/12/14 04:08:22;;;;;;;3.30;1.90;;;7.80;99.90;;;;;;4992923;28;20046;-69
2020/12/14 04:10:48;;;;;;;3.42;1.92;;;7.80;99.90;;;;;;4992194;28;20249;-69
2020/12/14 04:13:15;;;;;;;3.65;1.92;;;7.80;99.90;;;;;;4994230;28;20047;-69
2020/12/14 04:15:41;;;;;;;3.08;1.60;;;7.80;99.90;;;;;;4992565;28;20046;-69
2020/12/14 04:18:07;;;;;;;4.07;1.92;;;7.80;99.90;;;;;;4991804;28;20050;-69
2020/12/14 04:20:34;;;;;;;3.03;1.88;;;7.80;99.90;;;;;;4992425;28;20124;-69
2020/12/14 04:23:00;;;;;;;5.32;2.20;;;7.80;99.90;;;;;;4993670;28;20056;-69
2020/12/14 04:25:26;;;;;;;4.97;2.10;;;7.80;99.90;;;;;;4992758;28;20074;-69
2020/12/14 04:27:58;;;;;;;3.65;2.15;;;7.90;99.90;;;;;;4991996;28;20447;-69
2020/12/14 04:30:25;;;;;;;3.60;2.17;;;7.90;99.90;;;;;;4991988;28;20050;-69
2020/12/14 04:32:52;;;;;;;4.07;2.08;;;7.90;99.90;;;;;;4978027;28;20060;-69
2020/12/14 04:35:18;;;;;;;3.75;2.30;;;7.90;99.90;;;;;;4992255;28;20120;-69
2020/12/14 04:37:45;;;;;;;4.05;2.42;;;7.90;99.90;;;;;;4992735;28;20062;-69
2020/12/14 04:40:11;;;;;;;2.75;1.70;;;7.90;99.90;;;;;;4990777;28;20069;-69
2020/12/14 04:42:38;;;;;;;3.00;1.95;;;7.90;99.90;;;;;;4992326;28;20043;-69
2020/12/14 04:45:05;;;;;;;3.20;2.17;;;7.90;99.90;;;;;;4991114;28;20050;-69
2020/12/14 04:47:32;;;;;;;3.83;2.22;;;7.90;99.90;;;;;;4993371;28;20038;-69
2020/12/14 04:49:59;;;;;;;4.25;2.60;;;8.00;99.90;;;;;;4990074;28;20053;-69
2020/12/14 04:52:27;;;;;;;5.63;2.42;;;7.90;99.90;;;;;;4993064;28;20213;-69
2020/12/14 04:54:55;;;;;;;5.13;2.13;;;8.00;99.90;;;;;;4991366;28;20482;-69
2020/12/14 04:57:22;;;;;;;2.97;2.25;;;8.00;99.90;;;;;;4992179;28;20058;-69
2020/12/14 04:59:51;;;;;;;3.47;2.22;;;8.00;99.90;;;;;;4988152;28;20057;-69
2020/12/14 05:02:18;;;;;;;4.00;2.65;;;8.00;99.90;;;;;;4993056;28;20096;-69
2020/12/14 05:04:45;;;;;;;3.28;2.60;;;7.90;99.90;;;;;;4991116;28;20046;-69
2020/12/14 05:07:15;;;;;;;3.55;2.25;;;8.00;99.90;;;;;;4996051;28;20454;-69
2020/12/14 05:09:41;;;;;;;3.70;1.98;;;8.00;99.90;;;;;;4994816;28;20085;-70
2020/12/14 05:12:28;;;;;;;3.95;2.05;;;8.00;99.90;;;;;;4992626;28;20064;-69
2020/12/14 05:14:54;;;;;;;3.83;2.20;;;8.00;99.90;;;;;;4981866;28;20062;-69
2020/12/14 05:17:24;;;;;;;3.58;2.30;;;8.00;99.90;;;;;;4983551;28;20409;-69
2020/12/14 05:19:51;;;;;;;4.35;2.55;;;8.00;99.90;;;;;;4987701;28;20079;-69
2020/12/14 05:22:18;;;;;;;4.18;2.20;;;8.10;99.90;;;;;;4991776;28;20156;-69
2020/12/14 05:24:50;;;;;;;3.85;2.28;;;8.10;99.90;;;;;;4981138;28;20042;-69
2020/12/14 05:27:32;;;;;;;4.30;2.15;;;8.10;99.90;;;;;;4992934;28;20097;-69
2020/12/14 05:29:59;;;;;;;4.03;2.22;;;8.10;99.90;;;;;;4993509;28;20138;-69
2020/12/14 05:32:26;;;;;;;3.88;2.25;;;8.10;99.90;;;;;;4997287;28;20440;-69
2020/12/14 05:34:53;;;;;;;6.15;3.08;;;8.10;99.90;;;;;;4974259;28;20050;-69
2020/12/14 05:37:19;;;;;;;3.60;2.50;;;8.10;99.90;;;;;;4994230;28;20061;-69
2020/12/14 05:39:46;;;;;;;3.60;2.47;;;8.10;99.90;;;;;;4988906;28;20050;-69
2020/12/14 05:42:17;;;;;;;4.85;2.50;;;8.10;99.90;;;;;;4992261;28;20133;-69
2020/12/14 05:44:48;;;;;;;6.60;2.30;;;8.10;99.90;;;;;;4993139;28;20068;-69
2020/12/14 05:47:29;;;;;;;3.95;2.60;;;8.20;99.90;;;;;;4995237;28;20037;-69
2020/12/14 05:49:58;;;;;;;4.72;2.30;;;8.20;99.90;;;;;;4990000;28;20043;-69
2020/12/14 05:52:31;;;;;;;5.35;2.60;;;8.20;99.90;;;;;;4996668;28;20145;-69
2020/12/14 05:54:58;;;;;;;3.22;2.13;;;8.20;99.90;;;;;;4991807;28;20512;-69
2020/12/14 05:57:29;;;;;;;2.60;1.95;;;8.20;99.90;;;;;;4986251;28;20188;-69
2020/12/14 06:00:01;;;;;;;3.70;2.40;;;8.20;99.90;;;;;;4985573;28;20046;-69
2020/12/14 06:02:27;;;;;;;3.05;2.30;;;8.30;99.90;;;;;;4977980;28;20045;-69
2020/12/14 06:04:56;;;;;;;3.55;2.17;;;8.30;99.90;;;;;;5010587;28;20493;-69
2020/12/14 06:07:24;;;;;;;;;;;8.30;99.90;;;;;;5010074;28;20149;-69
2020/12/14 06:10:11;;;;;;;4.25;2.35;;;8.30;99.90;;;;;;5004405;28;20012;-69
2020/12/14 06:12:46;;;;;;;3.42;2.17;;;8.30;99.90;;;;;;5002605;28;20050;-69
2020/12/14 06:15:14;;;;;;;3.25;2.55;;;8.40;99.90;;;;;;5004561;28;20046;-69
2020/12/14 06:17:41;;;;;;;3.50;2.00;;;8.40;99.90;;;;;;5005032;28;20062;-69
2020/12/14 06:20:13;;;;;;;4.00;2.70;;;8.40;99.90;;;;;;4991640;28;20085;-69
2020/12/14 06:22:46;;;;;;;4.57;2.60;;;8.40;99.90;;;;;;5006888;28;20049;-69
2020/12/14 06:25:14;;;;;;;4.22;2.75;;;8.40;99.90;;;;;;5006562;28;20551;-69
2020/12/14 06:27:41;;;;;;;5.00;3.30;;;8.40;99.90;;;;;;5007167;28;20049;-69
2020/12/14 06:30:26;;;;;;;3.05;2.38;;;8.50;99.90;;;;;;5009547;28;20052;-69
2020/12/14 06:33:08;;;;;;;5.10;3.30;;;8.50;99.90;;;;;;4992918;28;20470;-69
2020/12/14 06:35:49;;;;;;;3.80;2.67;;;8.50;99.90;;;;;;5011424;28;20537;-69
2020/12/14 06:38:37;;;;;;;5.75;2.97;;;8.50;99.90;;;;;;5009081;28;20057;-69
2020/12/14 06:41:15;;;;;;;4.15;2.70;;;8.50;99.90;;;;;;5009125;28;20128;-69
2020/12/14 06:43:43;;;;;;;3.88;2.60;;;8.50;99.90;;;;;;5006012;28;20136;-69
2020/12/14 06:46:10;;;;;;;3.78;2.70;;;8.60;99.90;;;;;;5010072;28;20053;-69
2020/12/14 06:48:44;;;;;;;4.35;2.60;;;8.60;99.90;;;;;;5007306;28;20048;-69
2020/12/14 06:51:13;;;;;;;4.80;3.35;;;8.60;99.90;;;;;;5011123;28;20046;-69
2020/12/14 06:53:55;;;;;;;4.07;3.35;;;8.60;99.90;;;;;;5001442;28;20045;-69
2020/12/14 06:56:27;;;;;;;5.07;2.80;;;8.60;99.90;;;;;;5002536;28;20049;-69
2020/12/14 06:58:55;;;;;;;4.60;3.20;;;8.60;99.90;;;;;;5003696;28;20125;-69
2020/12/14 07:01:34;;;;;;;6.20;4.20;;;8.70;99.90;;;;;;4982767;28;20050;-69
2020/12/14 07:04:03;;;;;;;6.18;3.35;;;8.70;99.90;;;;;;5005877;28;20056;-70
2020/12/14 07:06:30;;;;;;;6.47;3.97;;;8.70;99.90;;;;;;5008554;28;20057;-70
2020/12/14 07:09:28;;;;;;;3.70;3.17;;;8.70;99.90;;;;;;4999343;28;20049;-70
2020/12/14 07:12:15;;;;;;;4.60;3.40;;;8.70;99.90;;;;;;5004337;28;20069;-70
2020/12/14 07:14:46;;;;;;;5.32;3.38;;;8.70;99.90;;;;;;5008348;28;20042;-71
2020/12/14 07:17:26;;;;;;;5.32;3.80;;;8.80;99.90;;;;;;5008722;28;20484;-71
2020/12/14 07:19:58;;;;;;;6.57;3.55;;;8.70;99.90;;;;;;5004789;28;20085;-70
2020/12/14 07:22:49;;;;;;;5.97;3.25;;;8.80;99.90;;;;;;5001957;28;20086;-70
2020/12/14 07:25:23;;;;;;;5.38;3.28;;;8.80;99.90;;;;;;5006520;28;20081;-70
2020/12/14 07:27:50;;;;;;;6.30;3.45;;;8.80;99.90;;;;;;5006644;28;20056;-70
2020/12/14 07:30:19;;;;;;;4.15;3.00;;;8.80;99.90;;;;;;5006008;28;20094;-71
2020/12/14 07:32:46;;;;;;;6.28;3.75;;;8.80;99.90;;;;;;5007660;28;20091;-71
2020/12/14 07:35:13;;;;;;;6.18;3.92;;;8.80;99.90;;;;;;5011386;28;20042;-71
2020/12/14 07:37:43;;;;;;;5.20;3.30;;;8.90;99.90;;;;;;5007704;28;20052;-71
2020/12/14 07:40:12;;;;;;;5.25;3.88;;;8.90;99.90;;;;;;5011009;28;20052;-71
2020/12/14 07:42:46;;;;;;;6.25;3.78;;;8.90;99.90;;;;;;5004056;28;20458;-71
2020/12/14 07:45:13;;;;;;;6.47;3.83;;;8.90;99.90;;;;;;5008193;28;20072;-71
2020/12/14 07:47:41;;;;;;;5.15;3.30;;;9.00;99.90;;;;;;5003477;28;20050;-71
2020/12/14 07:50:10;;;;;;;5.20;3.10;;;9.00;99.90;;;;;;5008628;28;20046;-72
2020/12/14 07:52:38;;;;;;;7.10;3.55;;;9.00;99.90;;;;;;5009226;28;20508;-71
2020/12/14 07:55:09;;;;;;;4.32;3.28;;;9.00;99.90;;;;;;5011672;28;20061;-71
2020/12/14 07:57:37;;;;;;;4.88;3.40;;;9.10;99.90;;;;;;5007903;28;20046;-71
2020/12/14 08:00:09;;;;;;;5.90;3.30;;;9.10;99.90;;;;;;5009852;28;20545;-71
2020/12/14 08:02:37;;;;;;;6.72;3.40;;;9.10;99.90;;;;;;4993852;28;20054;-71
2020/12/14 08:05:11;;;;;;;6.70;3.57;;;9.10;99.90;;;;;;4989321;28;20136;-71
2020/12/14 08:07:45;;;;;;;7.03;3.30;;;9.20;99.90;;;;;;4989180;28;20054;-71
2020/12/14 08:10:19;;;;;;;7.18;3.40;;;9.20;99.90;;;;;;4994697;28;20069;-71
2020/12/14 08:12:45;;;;;;;;;;;9.30;99.90;;;;;;4989707;28;20062;-71
2020/12/14 08:15:17;;;;;;;5.40;3.53;;;9.30;99.90;;;;;;4992119;28;19928;-71
2020/12/14 08:17:45;;;;;;;4.70;3.13;;;9.30;99.90;;;;;;4987167;28;20054;-72
2020/12/14 08:20:36;;;;;;;4.93;3.17;;;9.30;99.90;;;;;;4992624;28;20072;-72
2020/12/14 08:23:17;;;;;;;4.95;2.95;;;9.40;99.90;;;;;;4991645;28;20082;-71
2020/12/14 08:25:45;;;;;;;4.68;3.10;;;9.40;99.90;;;;;;4994031;28;20050;-71
2020/12/14 08:28:11;;;;;;;4.28;3.10;;;9.40;99.90;;;;;;4989990;28;20100;-72
2020/12/14 08:30:41;;;;;;;4.22;3.00;;;9.40;99.90;;;;;;4993372;28;20141;-71
2020/12/14 08:33:19;;;;;;;5.35;3.05;;;9.50;99.90;;;;;;4981671;28;20089;-72
2020/12/14 08:35:53;;;;;;;8.18;3.85;;;9.50;99.90;;;;;;4993410;28;20343;-71
2020/12/14 08:38:24;;;;;;;5.25;3.35;;;9.50;99.90;;;;;;4990457;28;20049;-72
2020/12/14 08:41:03;;;;;;;4.43;3.35;;;9.60;99.90;;;;;;4993528;28;20133;-72
2020/12/14 08:43:36;;;;;;;5.68;3.10;;;9.60;99.90;;;;;;4985568;28;20482;-72
2020/12/14 08:46:09;;;;;;;5.90;3.20;;;9.60;99.90;;;;;;4994102;28;20084;-72
2020/12/14 08:48:49;;;;;;;4.32;3.17;;;9.70;99.90;;;;;;4969990;28;20130;-71
2020/12/14 08:51:24;;;;;;;5.82;3.22;;;9.70;99.90;;;;;;4993216;28;20130;-72
2020/12/14 08:53:53;;;;;;;4.95;3.63;;;9.70;99.90;;;;;;4989706;28;20058;-72
2020/12/14 08:56:22;;;;;;;4.15;3.28;;;9.70;99.90;;;;;;4993646;28;20137;-72
2020/12/14 08:58:56;;;;;;;5.22;3.33;;;9.80;99.90;;;;;;4988583;28;20057;-72
2020/12/14 09:01:24;;;;;;;4.45;3.42;;;9.80;99.90;;;;;;4992016;28;20065;-72
2020/12/14 09:03:59;;;;;;;3.90;3.13;;;9.80;99.90;;;;;;5006872;28;20051;-71
2020/12/14 09:06:28;;;;;;;5.15;3.70;;;9.90;99.90;;;;;;4995685;28;20072;-72
2020/12/14 09:09:00;;;;;;;6.43;3.60;;;9.90;99.90;;;;;;5009236;28;20096;-71
2020/12/14 09:11:31;;;;;;;4.32;3.28;;;10.00;99.90;;;;;;5013918;28;20520;-71
2020/12/14 09:14:03;;;;;;;4.45;3.00;;;10.00;99.90;;;;;;5000796;28;20045;-71
2020/12/14 09:16:29;;;;;;;5.00;3.20;;;10.00;99.90;;;;;;5003912;28;20081;-71
2020/12/14 09:18:56;;;;;;;5.80;3.63;;;10.10;99.90;;;;;;5005300;28;20760;-71
2020/12/14 09:21:23;;;;;;;4.20;3.30;;;10.10;99.90;;;;;;5004470;28;20141;-71
2020/12/14 09:24:15;;;;;;;4.53;3.35;;;10.20;99.90;;;;;;5009706;28;20506;-72
2020/12/14 09:26:42;;;;;;;4.78;3.30;;;10.20;99.90;;;;;;5007398;28;20046;-72
2020/12/14 09:29:10;;;;;;;4.20;3.03;;;10.30;99.90;;;;;;4995223;28;20385;-71
2020/12/14 09:31:38;;;;;;;6.05;3.90;;;10.30;99.90;;;;;;5007625;28;20064;-71
2020/12/14 09:34:04;;;;;;;4.95;3.30;;;10.30;99.90;;;;;;5006170;28;20466;-71
2020/12/14 09:36:31;;;;;;;4.50;3.40;;;10.40;99.90;;;;;;5013671;28;20465;-72
2020/12/14 09:38:57;;;;;;;5.03;3.58;;;10.40;99.90;;;;;;5009797;28;20067;-71
2020/12/14 09:41:29;;;;;;;4.28;3.00;;;10.40;99.90;;;;;;5012159;28;20107;-72
2020/12/14 09:43:55;;;;;;;5.80;3.33;;;10.50;99.90;;;;;;5009239;28;20045;-72
2020/12/14 09:46:24;;;;;;;4.35;3.22;;;10.50;99.90;;;;;;5008431;28;20075;-71
2020/12/14 09:48:51;;;;;;;4.18;3.30;;;10.60;99.90;;;;;;5008761;28;20524;-71
2020/12/14 09:51:18;;;;;;;4.75;3.25;;;10.60;99.90;;;;;;5011255;28;20449;-71
2020/12/14 09:53:44;;;;;;;3.85;3.00;;;10.70;99.90;;;;;;5006780;28;20046;-71
2020/12/14 09:56:10;;;;;;;5.55;3.17;;;10.70;99.90;;;;;;5011558;28;20502;-72
2020/12/14 09:58:44;;;;;;;4.72;3.30;;;10.80;99.90;;;;;;5010361;28;20058;-71
2020/12/14 10:01:12;;;;;;;4.70;3.00;;;10.80;99.90;;;;;;5011863;28;20049;-71
2020/12/14 10:03:38;;;;;;;3.72;3.15;;;10.90;99.90;;;;;;4994077;28;20502;-71
2020/12/14 10:06:04;;;;;;;5.57;3.13;;;10.90;99.90;;;;;;4975149;28;20466;-71
2020/12/14 10:08:31;;;;;;;5.72;3.10;;;11.00;99.90;;;;;;4989927;28;20047;-69
2020/12/14 10:10:57;;;;;;;5.13;3.00;;;11.10;99.90;;;;;;4990434;28;20149;-69
2020/12/14 10:13:24;;;;;;;3.47;2.72;;;11.10;99.90;;;;;;4987628;28;20141;-69
2020/12/14 10:15:51;;;;;;;3.78;2.80;;;11.20;99.90;;;;;;4992271;28;20050;-69
2020/12/14 10:18:18;;;;;;;3.58;2.40;;;11.20;99.90;;;;;;4990126;28;20153;-69
2020/12/14 10:20:44;;;;;;;4.45;2.95;;;11.10;99.90;;;;;;4990924;28;20078;-69
2020/12/14 10:23:12;;;;;;;5.68;2.60;;;11.10;99.90;;;;;;4985420;28;20128;-69
2020/12/14 10:25:38;;;;;;;3.70;2.60;;;11.10;99.90;;;;;;4975100;28;20144;-69
2020/12/14 10:28:05;;;;;;;3.20;2.45;;;11.10;99.90;;;;;;4988033;28;20064;-69
2020/12/14 10:30:33;;;;;;;3.40;2.83;;;11.10;99.90;;;;;;4991406;28;20532;-69
2020/12/14 10:33:13;;;;;;;3.80;2.67;;;11.00;99.90;;;;;;4986870;28;20362;-69
2020/12/14 10:35:39;;;;;;;3.40;2.47;;;11.00;99.90;;;;;;4991585;28;20550;-69
2020/12/14 10:38:05;;;;;;;2.95;2.25;;;11.00;99.90;;;;;;4990309;28;20065;-68
2020/12/14 10:40:32;;;;;;;4.03;2.58;;;11.00;99.90;;;;;;4991982;28;20054;-68
2020/12/14 10:43:00;;;;;;;3.42;2.40;;;11.00;99.90;;;;;;4988507;28;20057;-68
2020/12/14 10:45:27;;;;;;;4.13;2.60;;;11.00;99.90;;;;;;4991282;28;20042;-69
2020/12/14 10:47:54;;;;;;;3.03;2.20;;;11.10;99.90;;;;;;4984991;28;20470;-69
2020/12/14 10:50:20;;;;;;;3.00;2.10;;;11.10;99.90;;;;;;4992022;28;20158;-69
2020/12/14 10:52:46;;;;;;;3.17;2.10;;;11.10;99.90;;;;;;4987793;28;20046;-69
2020/12/14 10:55:13;;;;;;;5.05;2.30;;;11.10;99.90;;;;;;4991764;28;20064;-69
2020/12/14 10:57:39;;;;;;;3.20;2.13;;;11.10;99.90;;;;;;4981863;28;20055;-69
2020/12/14 11:00:07;;;;;;;3.67;2.35;;;11.10;99.90;;;;;;4991684;28;20358;-68
2020/12/14 11:02:34;;;;;;;4.32;2.45;;;11.10;99.90;;;;;;4993449;28;20062;-69
2020/12/14 11:05:03;;;;;;;3.97;2.60;;;11.10;99.90;;;;;;5004856;28;20049;-68
2020/12/14 11:07:33;;;;;;;4.75;2.60;;;11.10;99.90;;;;;;5010027;28;20042;-68
2020/12/14 11:10:00;;;;;;;4.20;2.40;;;11.10;99.90;;;;;;4993251;28;20557;-69
2020/12/14 11:12:27;;;;;;;4.43;2.60;;;11.10;99.90;;;;;;5007743;28;20504;-69
2020/12/14 11:14:53;;;;;;;3.60;2.60;;;11.10;99.90;;;;;;5010436;28;20055;-68
2020/12/14 11:17:20;;;;;;;4.75;2.40;;;11.20;99.90;;;;;;5009235;28;20046;-68
2020/12/14 11:19:47;;;;;;;5.15;2.65;;;11.20;99.90;;;;;;5011155;28;20353;-68
2020/12/14 11:22:13;;;;;;;5.38;2.40;;;11.20;99.90;;;;;;5003427;28;20512;-69
2020/12/14 11:24:39;;;;;;;4.28;2.63;;;11.20;99.90;;;;;;5009323;28;20129;-69
2020/12/14 11:27:13;;;;;;;4.63;2.60;;;11.30;99.90;;;;;;5009578;28;20046;-69
2020/12/14 11:29:39;;;;;;;4.05;2.50;;;11.40;99.90;;;;;;5010419;28;20165;-69
2020/12/14 11:32:05;;;;;;;3.30;2.58;;;11.50;99.90;;;;;;4992049;28;21250;-69
2020/12/14 11:34:32;;;;;;;3.55;2.53;;;11.50;99.90;;;;;;4998911;28;20109;-69
2020/12/14 11:37:00;;;;;;;4.40;2.60;;;11.60;99.90;;;;;;5007773;28;20150;-69
2020/12/14 11:39:27;;;;;;;;;;;11.70;99.90;;;;;;5007507;28;20420;-69
2020/12/14 11:41:53;;;;;;;4.38;2.53;;;11.80;99.90;;;;;;5012807;28;19947;-69
2020/12/14 11:44:20;;;;;;;4.30;2.55;;;11.90;99.90;;;;;;5012145;28;20404;-69
2020/12/14 11:46:52;;;;;;;3.65;2.50;;;11.90;99.90;;;;;;5013603;28;20129;-69
2020/12/14 11:49:19;;;;;;;4.10;2.53;;;11.90;99.90;;;;;;5011996;28;20464;-69
2020/12/14 11:51:46;;;;;;;4.82;2.45;;;11.80;99.90;;;;;;5014132;28;20130;-69
2020/12/14 11:54:13;;;;;;;2.97;2.10;;;11.80;99.90;;;;;;5011520;28;20053;-69
2020/12/14 11:56:39;;;;;;;4.22;2.70;;;11.80;99.90;;;;;;5014406;28;20045;-68
2020/12/14 11:59:06;;;;;;;3.08;2.55;;;11.70;99.90;;;;;;5011612;28;20089;-68
2020/12/14 12:01:32;;;;;;;5.28;2.60;;;11.90;99.90;;;;;;5015521;28;20367;-69
2020/12/14 12:04:08;;;;;;;4.28;2.13;;;12.30;99.90;;;;;;4992930;28;20050;-68
2020/12/14 12:06:35;;;;;;;3.60;2.40;;;12.70;99.90;;;;;;4982758;28;20530;-69
2020/12/14 12:09:02;;;;;;;3.53;2.08;;;12.60;99.90;;;;;;4993695;28;20047;-69
2020/12/14 12:11:29;;;;;;;4.38;2.47;;;12.50;99.90;;;;;;4993453;28;20038;-69
2020/12/14 12:13:55;;;;;;;3.83;2.20;;;12.30;99.90;;;;;;4990407;28;20061;-69
2020/12/14 12:16:21;;;;;;;5.18;2.50;;;12.20;99.90;;;;;;4995329;28;20061;-69
2020/12/14 12:18:51;;;;;;;4.90;2.33;;;12.10;99.90;;;;;;4993267;28;20137;-69
2020/12/14 12:21:17;;;;;;;4.22;2.30;;;12.00;99.90;;;;;;4994739;28;20069;-69
2020/12/14 12:23:43;;;;;;;5.18;2.35;;;11.90;99.90;;;;;;4984655;28;20055;-68
2020/12/14 12:26:11;;;;;;;3.45;2.42;;;11.80;99.90;;;;;;4994701;28;20081;-68
2020/12/14 12:28:38;;;;;;;4.43;2.45;;;11.70;99.90;;;;;;4988250;28;20130;-68
2020/12/14 12:31:05;;;;;;;4.03;2.40;;;11.70;99.90;;;;;;4973560;28;20498;-68
2020/12/14 12:33:31;;;;;;;3.60;2.50;;;11.70;99.90;;;;;;4985562;28;20597;-69
2020/12/14 12:35:57;;;;;;;4.55;2.53;;;11.70;99.90;;;;;;4994175;28;20057;-68
2020/12/14 12:38:24;;;;;;;3.88;2.70;;;11.90;99.90;;;;;;4992179;28;20058;-69
2020/12/14 12:40:50;;;;;;;3.28;2.13;;;12.30;99.90;;;;;;4993703;28;20050;-68
2020/12/14 12:43:16;;;;;;;4.43;2.25;;;12.80;99.90;;;;;;4990751;28;20129;-68
2020/12/14 12:45:42;;;;;;;3.40;2.17;;;13.30;99.90;;;;;;4993429;28;20108;-69
2020/12/14 12:48:09;;;;;;;4.32;2.20;;;13.80;99.90;;;;;;4991469;28;20042;-68
2020/12/14 12:50:52;;;;;;;3.33;2.20;;;14.20;99.90;;;;;;4993618;28;20129;-68
2020/12/14 12:53:23;;;;;;;4.38;1.85;;;14.20;99.90;;;;;;4987409;28;20061;-68
2020/12/14 12:55:50;;;;;;;3.33;2.30;;;14.00;99.90;;;;;;4993845;28;20086;-69
2020/12/14 12:58:16;;;;;;;4.00;2.17;;;13.70;99.90;;;;;;4991820;28;20057;-69
2020/12/14 13:00:42;;;;;;;4.03;2.45;;;13.30;99.90;;;;;;4993980;28;20136;-68
2020/12/14 13:03:08;;;;;;;3.35;2.38;;;13.10;99.90;;;;;;5000363;28;20052;-68